Time;durP1;ratioP1;P1;durP2;ratioP2;P2;SDS_P1;SDS_P2;PMS_P1;PMS_P2;Temp;Humidity;BMP_temperature;BMP_pressure;BME280_temperature;BME280_humidity;BME280_pressure;Samples;Min_cycle;Max_cycle;Signal;HPM_P1;HPM_P2
2022/05/06 00:03:49;;;;;;;;;;;13.60;91.10;;;;;;8416517;28;20363;-68
2022/05/06 00:07:50;;;;;;;;;;;13.60;91.10;;;;;;8410579;28;20356;-69
2022/05/06 00:11:52;;;;;;;;;;;13.50;91.20;;;;;;8448899;27;19931;-69
2022/05/06 00:15:53;;;;;;;;;;;13.40;91.00;;;;;;8418815;28;19920;-69
2022/05/06 00:19:55;;;;;;;;;;;13.30;91.00;;;;;;8419267;28;19924;-69
2022/05/06 00:23:57;;;;;;;;;;;13.30;91.00;;;;;;8429248;28;19920;-69
2022/05/06 00:28:03;;;;;;;;;;;13.20;91.00;;;;;;8406150;28;19974;-69
2022/05/06 00:32:06;;;;;;;;;;;13.10;91.10;;;;;;8417895;28;20347;-68
2022/05/06 00:36:08;;;;;;;;;;;13.10;91.30;;;;;;8411500;28;19927;-68
2022/05/06 00:40:10;;;;;;;;;;;13.10;91.30;;;;;;8413494;28;19943;-69
2022/05/06 00:44:11;;;;;;;;;;;13.10;91.50;;;;;;8409042;28;19924;-69
2022/05/06 00:48:13;;;;;;;;;;;13.10;91.70;;;;;;8408919;28;19943;-69
2022/05/06 00:52:16;;;;;;;;;;;13.10;92.00;;;;;;8408810;28;19935;-68
2022/05/06 00:56:17;;;;;;;;;;;13.10;92.50;;;;;;8441170;27;19927;-69
2022/05/06 01:00:19;;;;;;;;;;;13.10;92.30;;;;;;8418024;28;19920;-69
2022/05/06 01:04:22;;;;;;;;;;;13.10;92.80;;;;;;8411176;28;19924;-69
2022/05/06 01:08:23;;;;;;;;;;;13.10;93.00;;;;;;8405705;28;19920;-69
2022/05/06 01:12:25;;;;;;;;;;;13.10;92.90;;;;;;8414818;28;19923;-69
2022/05/06 01:16:32;;;;;;;;;;;13.10;92.90;;;;;;8424516;28;19920;-68
2022/05/06 01:20:36;;;;;;;;;;;13.10;92.90;;;;;;8410966;28;19981;-69
2022/05/06 01:24:38;;;;;;;;;;;13.00;93.00;;;;;;8420919;28;19927;-69
2022/05/06 01:28:41;;;;;;;;;;;12.90;92.90;;;;;;8414422;28;19920;-71
2022/05/06 01:32:43;;;;;;;;;;;12.80;93.20;;;;;;8411956;28;19931;-70
2022/05/06 01:36:49;;;;;;;;;;;12.60;93.70;;;;;;8412077;28;20295;-70
2022/05/06 01:40:54;;;;;;;;;;;12.50;93.90;;;;;;8410668;28;19921;-70
2022/05/06 01:44:56;;;;;;;;;;;12.40;93.60;;;;;;8411197;28;19924;-70
2022/05/06 01:48:59;;;;;;;;;;;12.40;93.30;;;;;;8410480;28;20272;-70
2022/05/06 01:53:01;;;;;;;;;;;12.40;93.10;;;;;;8416231;28;19920;-71
2022/05/06 01:57:02;;;;;;;;;;;12.40;93.40;;;;;;8416000;28;19920;-70
2022/05/06 02:01:05;;;;;;;;;;;12.50;93.90;;;;;;8415225;28;19927;-70
2022/05/06 02:05:19;;;;;;;;;;;12.50;94.10;;;;;;8407407;28;20416;-71
2022/05/06 02:09:21;;;;;;;;;;;12.60;94.40;;;;;;8399395;28;19932;-70
2022/05/06 02:13:23;;;;;;;;;;;12.60;94.50;;;;;;8449127;27;19924;-71
2022/05/06 02:17:25;;;;;;;;;;;12.60;94.40;;;;;;8413011;28;19920;-71
2022/05/06 02:21:27;;;;;;;;;;;12.70;94.10;;;;;;8417337;28;19920;-70
2022/05/06 02:25:28;;;;;;;;;;;12.70;94.60;;;;;;8413744;28;19921;-70
2022/05/06 02:29:30;;;;;;;;;;;12.60;94.80;;;;;;8425595;28;20006;-70
2022/05/06 02:33:31;;;;;;;;;;;12.60;94.60;;;;;;8412400;28;19932;-71
2022/05/06 02:37:33;;;;;;;;;;;12.50;94.90;;;;;;8411368;28;20295;-71
2022/05/06 02:41:35;;;;;;;;;;;12.50;95.00;;;;;;8409828;28;21511;-71
2022/05/06 02:45:36;;;;;;;;;;;12.50;95.30;;;;;;8410012;28;19943;-70
2022/05/06 02:49:38;;;;;;;;;;;12.50;95.50;;;;;;8406140;28;19989;-71
2022/05/06 02:53:40;;;;;;;;;;;12.50;95.40;;;;;;8411105;28;19920;-70
2022/05/06 02:57:41;;;;;;;;;;;12.50;95.20;;;;;;8412142;28;19943;-70
2022/05/06 03:01:44;;;;;;;;;;;12.50;95.50;;;;;;8415493;28;19943;-70
2022/05/06 03:05:45;;;;;;;;;;;12.50;95.30;;;;;;8419119;28;19924;-70
2022/05/06 03:09:47;;;;;;;;;;;12.40;95.70;;;;;;8407082;28;19923;-70
2022/05/06 03:13:49;;;;;;;;;;;12.30;96.60;;;;;;8410067;28;20503;-70
2022/05/06 03:17:51;;;;;;;;;;;12.20;96.10;;;;;;8433189;28;19928;-71
2022/05/06 03:21:56;;;;;;;;;;;12.20;96.20;;;;;;8423832;28;19952;-70
2022/05/06 03:25:58;;;;;;;;;;;12.10;96.00;;;;;;8423815;28;19928;-70
2022/05/06 03:30:00;;;;;;;;;;;12.10;95.50;;;;;;8408945;28;19927;-70
2022/05/06 03:34:05;;;;;;;;;;;12.10;96.00;;;;;;8419148;28;20249;-70
2022/05/06 03:38:06;;;;;;;;;;;12.10;96.10;;;;;;8411637;28;19935;-70
2022/05/06 03:42:08;;;;;;;;;;;12.10;96.00;;;;;;8406052;28;20291;-70
2022/05/06 03:46:10;;;;;;;;;;;12.00;96.10;;;;;;8412722;28;19920;-70
2022/05/06 03:54:33;;;;;;;;;;;11.90;97.10;;;;;;8413642;28;19935;-70
2022/05/06 03:58:34;;;;;;;;;;;11.80;97.50;;;;;;8418599;28;19923;-70
2022/05/06 04:02:36;;;;;;;;;;;11.80;97.80;;;;;;8422473;28;19920;-70
2022/05/06 04:06:38;;;;;;;;;;;11.70;98.40;;;;;;8414816;28;19975;-70
2022/05/06 04:10:40;;;;;;;;;;;11.60;98.50;;;;;;8415628;28;19919;-70
2022/05/06 04:14:41;;;;;;;;;;;11.50;98.80;;;;;;8414781;28;19931;-70
2022/05/06 04:18:43;;;;;;;;;;;11.50;98.90;;;;;;8422142;28;19919;-70
2022/05/06 04:27:05;;;;;;;;;;;11.50;99.30;;;;;;8417361;28;20336;-70
2022/05/06 04:31:07;;;;;;;;;;;11.50;99.90;;;;;;8415297;28;19926;-70
2022/05/06 04:35:09;;;;;;;;;;;11.40;99.60;;;;;;8421104;28;19920;-70
2022/05/06 04:39:11;;;;;;;;;;;11.30;99.40;;;;;;8409728;28;20013;-70
2022/05/06 04:43:13;;;;;;;;;;;11.20;99.70;;;;;;8416152;27;20383;-70
2022/05/06 04:47:14;;;;;;;;;;;11.10;99.50;;;;;;8404283;28;19935;-70
2022/05/06 04:51:16;;;;;;;;;;;11.10;99.40;;;;;;8408338;28;19923;-70
2022/05/06 04:55:18;;;;;;;;;;;11.10;99.60;;;;;;8415450;28;20367;-70
2022/05/06 04:59:22;;;;;;;;;;;11.00;99.90;;;;;;8411728;28;19925;-69
2022/05/06 05:03:23;;;;;;;;;;;10.90;99.90;;;;;;8423289;28;20375;-69
2022/05/06 05:07:25;;;;;;;;;;;10.80;99.90;;;;;;8410323;28;19927;-70
2022/05/06 05:11:29;;;;;;;;;;;10.80;99.90;;;;;;8408483;28;20486;-69
2022/05/06 05:15:30;;;;;;;;;;;10.70;99.90;;;;;;8415433;28;19959;-69
2022/05/06 05:19:32;;;;;;;;;;;10.80;99.90;;;;;;8407836;28;19924;-70
2022/05/06 05:23:34;;;;;;;;;;;10.90;99.90;;;;;;8409455;28;20321;-70
2022/05/06 05:27:38;;;;;;;;;;;11.00;99.90;;;;;;8415930;28;19924;-70
2022/05/06 05:31:40;;;;;;;;;;;11.00;99.90;;;;;;8405335;28;19920;-70
2022/05/06 05:35:42;;;;;;;;;;;11.10;99.90;;;;;;8411774;28;19919;-70
2022/05/06 05:39:44;;;;;;;;;;;11.10;99.90;;;;;;8405301;28;19920;-69
2022/05/06 05:48:19;;;;;;;;;;;;;;;;;;;;;
2022/05/06 05:52:10;;;;;;;;;;;11.20;99.90;;;;;;8410544;28;19935;-70
2022/05/06 05:56:11;;;;;;;;;;;11.20;99.90;;;;;;8454086;27;19932;-70
2022/05/06 06:00:13;;;;;;;;;;;11.20;99.90;;;;;;8410172;28;19924;-70
2022/05/06 06:04:15;;;;;;;;;;;11.20;99.90;;;;;;8402840;28;20370;-70
2022/05/06 06:08:18;;;;;;;;;;;11.20;99.90;;;;;;8396730;28;19974;-70
2022/05/06 06:12:19;;;;;;;;;;;11.20;99.90;;;;;;8417735;27;19931;-70
2022/05/06 06:16:21;;;;;;;;;;;11.20;99.90;;;;;;8388258;28;19966;-70
2022/05/06 06:20:23;;;;;;;;;;;11.20;99.90;;;;;;8415673;27;19935;-70
2022/05/06 06:24:26;;;;;;;;;;;11.30;99.90;;;;;;8383171;28;20434;-70
2022/05/06 06:28:27;;;;;;;;;;;11.20;99.90;;;;;;8382236;28;20376;-70
2022/05/06 06:32:29;;;;;;;;;;;11.20;99.90;;;;;;8385320;28;19933;-70
2022/05/06 06:36:31;;;;;;;;;;;11.30;99.90;;;;;;8385787;28;19931;-70
2022/05/06 06:40:32;;;;;;;;;;;11.30;99.90;;;;;;8422492;27;19935;-70
2022/05/06 06:44:34;;;;;;;;;;;11.30;99.90;;;;;;8388213;28;19947;-70
2022/05/06 06:48:39;;;;;;;;;;;11.30;99.90;;;;;;8388177;28;20137;-70
2022/05/06 06:52:41;;;;;;;;;;;11.40;99.90;;;;;;8387990;28;20277;-70
2022/05/06 06:56:42;;;;;;;;;;;11.50;99.90;;;;;;8389050;28;20299;-70
2022/05/06 07:00:44;;;;;;;;;;;11.50;99.90;;;;;;8418714;27;20395;-70
2022/05/06 07:04:45;;;;;;;;;;;11.60;99.90;;;;;;8388888;28;19936;-70
2022/05/06 07:13:07;;;;;;;;;;;11.60;99.90;;;;;;8388133;28;19928;-70
2022/05/06 07:17:09;;;;;;;;;;;11.70;99.90;;;;;;8385854;28;19943;-70
2022/05/06 07:21:11;;;;;;;;;;;11.80;99.90;;;;;;8382202;28;19978;-70
2022/05/06 07:25:12;;;;;;;;;;;11.70;99.90;;;;;;8384570;28;19928;-71
2022/05/06 07:29:14;;;;;;;;;;;11.80;99.90;;;;;;8387277;28;19925;-70
2022/05/06 07:33:16;;;;;;;;;;;11.80;99.90;;;;;;8386180;28;19929;-69
2022/05/06 07:37:17;;;;;;;;;;;11.80;99.90;;;;;;8389933;28;19936;-69
2022/05/06 07:41:19;;;;;;;;;;;11.90;99.90;;;;;;8387158;28;19936;-70
2022/05/06 07:45:21;;;;;;;;;;;12.00;99.90;;;;;;8385701;28;19925;-70
2022/05/06 07:49:23;;;;;;;;;;;12.00;99.90;;;;;;8387810;28;19983;-70
2022/05/06 07:53:25;;;;;;;;;;;12.00;99.90;;;;;;8371505;28;19975;-70
2022/05/06 07:57:27;;;;;;;;;;;12.10;99.90;;;;;;8387958;28;19925;-71
2022/05/06 08:05:56;;;;;;;;;;;12.30;99.90;;;;;;8387478;28;20403;-70
2022/05/06 08:09:58;;;;;;;;;;;12.50;99.90;;;;;;8380706;28;20524;-70
2022/05/06 08:14:00;;;;;;;;;;;12.60;99.90;;;;;;8385295;28;20299;-70
2022/05/06 08:18:02;;;;;;;;;;;12.60;99.90;;;;;;8386065;28;20352;-70
2022/05/06 08:22:05;;;;;;;;;;;12.70;99.90;;;;;;8388480;28;19947;-70
2022/05/06 08:26:07;;;;;;;;;;;12.90;99.90;;;;;;8385798;28;19939;-70
2022/05/06 08:30:10;;;;;;;;;;;12.90;99.90;;;;;;8388685;28;20105;-70
2022/05/06 08:34:12;;;;;;;;;;;12.90;99.90;;;;;;8384740;28;19939;-70
2022/05/06 08:38:15;;;;;;;;;;;13.00;99.90;;;;;;8378567;28;19986;-70
2022/05/06 08:42:20;;;;;;;;;;;13.20;99.90;;;;;;8374335;28;19928;-70
2022/05/06 08:50:53;;;;;;;;;;;13.30;99.90;;;;;;8386311;28;19925;-70
2022/05/06 08:54:54;;;;;;;;;;;13.50;99.90;;;;;;8382069;28;20486;-70
2022/05/06 08:58:57;;;;;;;;;;;13.70;99.90;;;;;;8381639;28;19959;-73
2022/05/06 09:02:58;;;;;;;;;;;13.80;99.90;;;;;;8431740;27;20316;-74
2022/05/06 09:07:33;;;;;;;;;;;14.00;99.90;;;;;;8391865;28;19932;-74
2022/05/06 09:20:38;;;;;;;;;;;14.40;99.90;;;;;;8393832;28;19970;-74
2022/05/06 09:24:41;;;;;;;;;;;14.60;99.90;;;;;;8388166;28;20411;-74
2022/05/06 09:28:43;;;;;;;;;;;14.80;99.90;;;;;;8396393;28;19931;-74
2022/05/06 09:32:45;;;;;;;;;;;14.90;99.90;;;;;;8392740;28;19936;-74
2022/05/06 09:36:47;;;;;;;;;;;15.00;99.90;;;;;;8389463;28;19933;-74
2022/05/06 09:40:48;;;;;;;;;;;15.10;99.90;;;;;;8393857;28;19933;-75
2022/05/06 09:44:50;;;;;;;;;;;15.20;99.90;;;;;;8424087;27;20056;-75
2022/05/06 09:49:02;;;;;;;;;;;15.30;99.90;;;;;;8389479;28;19932;-74
2022/05/06 09:53:21;;;;;;;;;;;15.40;99.90;;;;;;8389301;28;19928;-74
2022/05/06 09:57:23;;;;;;;;;;;15.50;99.90;;;;;;8391877;28;19928;-75
2022/05/06 10:01:25;;;;;;;;;;;15.60;99.90;;;;;;8398741;28;19924;-75
2022/05/06 10:05:27;;;;;;;;;;;15.80;99.90;;;;;;8402491;28;19931;-75
2022/05/06 10:09:31;;;;;;;;;;;15.90;99.90;;;;;;8388716;28;19931;-74
2022/05/06 10:13:34;;;;;;;;;;;16.10;99.90;;;;;;8408969;28;19928;-75
2022/05/06 10:17:51;;;;;;;;;;;16.30;99.90;;;;;;8407492;28;19924;-74
2022/05/06 10:21:53;;;;;;;;;;;16.40;99.90;;;;;;8402089;28;19932;-74
2022/05/06 10:25:55;;;;;;;;;;;16.60;99.90;;;;;;8392762;28;20007;-75
2022/05/06 10:34:23;;;;;;;;;;;16.90;99.90;;;;;;8384856;28;19921;-75
2022/05/06 10:38:25;;;;;;;;;;;17.20;99.90;;;;;;8396742;28;19928;-74
2022/05/06 10:42:36;;;;;;;;;;;17.40;99.90;;;;;;8399858;28;19977;-75
2022/05/06 10:46:39;;;;;;;;;;;17.50;99.90;;;;;;8390403;28;19920;-74
2022/05/06 10:50:40;;;;;;;;;;;17.50;99.90;;;;;;8397841;28;20011;-75
2022/05/06 10:54:49;;;;;;;;;;;17.60;99.90;;;;;;8427007;27;20541;-75
2022/05/06 10:58:57;;;;;;;;;;;17.70;99.90;;;;;;8399027;28;19928;-74
2022/05/06 11:02:59;;;;;;;;;;;17.80;99.90;;;;;;8391486;28;19978;-74
2022/05/06 11:07:10;;;;;;;;;;;17.90;99.90;;;;;;8394409;28;19924;-74
2022/05/06 11:11:18;;;;;;;;;;;18.20;99.90;;;;;;8402721;28;19919;-74
2022/05/06 11:15:32;;;;;;;;;;;18.40;99.90;;;;;;8435086;27;20275;-74
2022/05/06 11:19:34;;;;;;;;;;;18.60;99.90;;;;;;8404398;28;19928;-74
2022/05/06 11:23:36;;;;;;;;;;;18.70;99.90;;;;;;8400375;28;20201;-74
2022/05/06 11:27:37;;;;;;;;;;;18.70;99.90;;;;;;8401566;28;20031;-73
2022/05/06 11:31:45;;;;;;;6.70;3.47;;;18.90;99.90;;;;;;8426670;27;20283;-74
2022/05/06 11:35:48;;;;;;;6.57;3.35;;;19.20;99.90;;;;;;8408125;28;20078;-74
2022/05/06 11:39:51;;;;;;;6.72;3.65;;;19.40;99.90;;;;;;8397200;28;20510;-74
2022/05/06 11:44:03;;;;;;;8.38;4.45;;;19.50;99.90;;;;;;8398053;28;20048;-74
2022/05/06 11:48:07;;;;;;;7.95;4.38;;;19.60;99.90;;;;;;8396626;28;20048;-74
2022/05/06 11:52:09;;;;;;;9.40;5.53;;;19.60;99.90;;;;;;8393041;28;20044;-73
2022/05/06 11:56:12;;;;;;;8.85;4.55;;;19.60;99.90;;;;;;8395890;28;20048;-73
2022/05/06 12:00:15;;;;;;;8.18;4.57;;;19.60;99.90;;;;;;8396746;28;20143;-73
2022/05/06 12:04:17;;;;;;;9.40;5.60;;;19.60;99.90;;;;;;8393200;28;20132;-73
2022/05/06 12:08:26;;;;;;;10.15;5.47;;;19.80;99.90;;;;;;8396525;28;20131;-73
2022/05/06 12:12:27;;;;;;;8.70;4.90;;;19.90;99.90;;;;;;8397267;28;20488;-73
2022/05/06 12:16:29;;;;;;;10.25;5.65;;;20.00;99.90;;;;;;8392217;28;20048;-73
2022/05/06 12:20:36;;;;;;;9.88;5.35;;;20.10;99.90;;;;;;8404663;28;20048;-74
2022/05/06 12:24:42;;;;;;;10.07;5.65;;;20.10;99.90;;;;;;8396574;28;20071;-73
2022/05/06 12:28:47;;;;;;;;;;;20.10;99.90;;;;;;8389551;28;20131;-74
2022/05/06 12:33:08;;;;;;;;;;;20.10;99.90;;;;;;8391605;28;19927;-74
2022/05/06 12:37:16;;;;;;;;;;;20.20;99.90;;;;;;8388792;28;19927;-73
2022/05/06 12:41:34;;;;;;;;;;;20.30;99.90;;;;;;8379709;28;19935;-73
2022/05/06 12:45:37;;;;;;;;;;;20.30;99.90;;;;;;8394288;28;20368;-74
2022/05/06 12:49:39;;;;;;;;;;;20.30;99.90;;;;;;8392232;28;19924;-74
2022/05/06 12:53:41;;;;;;;;;;;20.30;99.90;;;;;;8387744;28;19927;-74
2022/05/06 12:57:42;;;;;;;;;;;20.50;99.90;;;;;;8401317;28;20363;-74
2022/05/06 13:01:44;;;;;;;;;;;20.50;99.90;;;;;;8386736;28;19920;-74
2022/05/06 13:05:46;;;;;;;;;;;20.50;99.90;;;;;;8392128;28;20384;-74
2022/05/06 13:09:48;;;;;;;;;;;20.40;99.90;;;;;;8392929;28;19932;-75
2022/05/06 13:13:49;;;;;;;;;;;20.40;99.90;;;;;;8397044;28;19920;-74
2022/05/06 13:17:51;;;;;;;;;;;20.40;99.90;;;;;;8393051;28;19925;-74
2022/05/06 13:21:52;;;;;;;;;;;20.30;99.90;;;;;;8394102;28;19950;-74
2022/05/06 13:25:54;;;;;;;;;;;20.30;99.90;;;;;;8392104;28;19920;-74
2022/05/06 13:29:56;;;;;;;;;;;20.30;99.90;;;;;;8387642;28;19939;-74
2022/05/06 13:33:59;;;;;;;;;;;20.30;99.90;;;;;;8394411;28;19946;-74
2022/05/06 13:38:00;;;;;;;;;;;20.20;99.90;;;;;;8383660;28;19935;-74
2022/05/06 13:42:03;;;;;;;;;;;20.20;99.90;;;;;;8392382;28;20368;-73
2022/05/06 13:46:05;;;;;;;;;;;20.20;99.90;;;;;;8393522;28;19921;-72
2022/05/06 13:50:07;;;;;;;;;;;20.20;99.90;;;;;;8391172;28;19920;-72
2022/05/06 13:54:10;;;;;;;;;;;20.30;99.90;;;;;;8389519;28;20248;-72
2022/05/06 14:02:32;;;;;;;;;;;20.40;99.90;;;;;;8385673;28;19939;-72
2022/05/06 14:06:34;;;;;;;;;;;20.60;99.90;;;;;;8383188;28;19921;-72
2022/05/06 14:10:36;;;;;;;;;;;20.70;99.90;;;;;;8388710;28;21799;-72
2022/05/06 14:14:38;;;;;;;;;;;20.80;99.90;;;;;;8394339;28;20052;-72
2022/05/06 14:18:39;;;;;;;;;;;20.80;99.90;;;;;;8387082;28;19931;-72
2022/05/06 14:22:45;;;;;;;;;;;20.80;99.90;;;;;;8390223;28;19945;-72
2022/05/06 14:26:46;;;;;;;;;;;20.80;99.90;;;;;;8387427;28;20386;-74
2022/05/06 14:30:48;;;;;;;;;;;20.80;99.90;;;;;;8387070;28;19931;-74
2022/05/06 14:34:50;;;;;;;;;;;21.00;99.90;;;;;;8388418;28;20307;-74
2022/05/06 14:38:52;;;;;;;;;;;21.30;99.90;;;;;;8384140;28;19939;-74
2022/05/06 14:42:54;;;;;;;;;;;21.70;99.90;;;;;;8386999;28;19925;-74
2022/05/06 14:46:57;;;;;;;;;;;21.90;99.90;;;;;;8385493;28;19920;-74
2022/05/06 14:50:59;;;;;;;;;;;22.30;99.90;;;;;;8388857;28;19924;-74
2022/05/06 14:55:03;;;;;;;;;;;22.50;99.90;;;;;;8389161;28;19928;-74
2022/05/06 14:59:05;;;;;;;;;;;22.50;99.90;;;;;;8422307;27;19960;-74
2022/05/06 15:03:06;;;;;;;;;;;22.50;99.90;;;;;;8392308;28;19939;-74
2022/05/06 15:07:08;;;;;;;;;;;22.60;99.90;;;;;;8388744;28;19925;-74
2022/05/06 15:11:10;;;;;;;;;;;22.60;99.90;;;;;;8397082;28;19934;-74
2022/05/06 15:15:12;;;;;;;;;;;22.60;99.90;;;;;;8396171;28;20256;-74
2022/05/06 15:19:27;;;;;;;;;;;22.70;99.90;;;;;;8396957;28;19982;-74
2022/05/06 15:23:28;;;;;;;;;;;22.80;99.90;;;;;;8392563;28;19977;-74
2022/05/06 15:27:30;;;;;;;;;;;22.90;99.90;;;;;;8391790;28;20346;-73
2022/05/06 15:31:32;;;;;;;;;;;22.70;99.90;;;;;;8402333;28;20267;-74
2022/05/06 15:35:33;;;;;;;;;;;22.30;99.90;;;;;;8392800;28;19924;-74
2022/05/06 15:39:35;;;;;;;;;;;22.00;99.90;;;;;;8392589;28;19927;-73
2022/05/06 15:43:38;;;;;;;;;;;21.80;99.90;;;;;;8395633;28;20007;-74
2022/05/06 15:47:39;;;;;;;;;;;21.80;99.90;;;;;;8392555;28;19928;-74
2022/05/06 15:51:41;;;;;;;;;;;21.90;99.90;;;;;;8391288;28;19924;-74
2022/05/06 15:55:43;;;;;;;;;;;21.90;99.90;;;;;;8392485;28;20288;-72
2022/05/06 15:59:44;;;;;;;;;;;21.80;99.90;;;;;;8393676;28;19971;-72
2022/05/06 16:03:46;;;;;;;;;;;21.60;99.90;;;;;;8389081;28;19928;-72
2022/05/06 16:07:48;;;;;;;;;;;21.50;99.90;;;;;;8390430;28;20454;-72
2022/05/06 16:11:49;;;;;;;;;;;21.50;99.90;;;;;;8399687;28;19920;-72
2022/05/06 16:15:53;;;;;;;;;;;21.60;99.90;;;;;;8396749;28;19999;-72
2022/05/06 16:19:54;;;;;;;;;;;21.60;99.90;;;;;;8388703;28;19943;-72
2022/05/06 16:23:56;;;;;;;;;;;21.50;99.90;;;;;;8393561;28;19927;-72
2022/05/06 16:28:00;;;;;;;;;;;21.50;99.90;;;;;;8392438;28;19924;-72
2022/05/06 16:32:02;;;;;;;;;;;21.60;99.90;;;;;;8390233;28;19978;-72
2022/05/06 16:40:25;;;;;;;;;;;22.70;99.90;;;;;;8398880;28;19927;-72
2022/05/06 16:44:26;;;;;;;;;;;23.00;99.90;;;;;;8397835;28;19924;-72
2022/05/06 16:48:28;;;;;;;;;;;23.20;99.90;;;;;;8397160;28;20366;-72
2022/05/06 16:52:30;;;;;;;;;;;22.90;99.90;;;;;;8425659;27;20311;-72
2022/05/06 16:56:32;;;;;;;;;;;22.60;99.90;;;;;;8390276;28;19931;-74
2022/05/06 17:00:33;;;;;;;;;;;22.30;99.90;;;;;;8391738;28;19927;-75
2022/05/06 17:04:35;;;;;;;;;;;22.00;99.90;;;;;;8426793;27;19932;-74
2022/05/06 17:08:37;;;;;;;;;;;21.80;99.90;;;;;;8394484;28;20031;-74
2022/05/06 17:12:39;;;;;;;;;;;21.60;99.90;;;;;;8397505;28;20034;-74
2022/05/06 17:16:42;;;;;;;;;;;21.40;99.90;;;;;;8392311;28;19920;-74
2022/05/06 17:20:43;;;;;;;;;;;21.30;99.90;;;;;;8391532;28;19966;-74
2022/05/06 17:24:45;;;;;;;;;;;21.30;99.90;;;;;;8391707;28;19974;-72
2022/05/06 17:28:47;;;;;;;;;;;21.30;99.90;;;;;;8391598;28;19931;-72
2022/05/06 17:32:48;;;;;;;;;;;21.40;99.90;;;;;;8391580;28;19920;-72
2022/05/06 17:36:50;;;;;;;;;;;21.70;99.90;;;;;;8390179;28;19951;-72
2022/05/06 17:40:53;;;;;;;;;;;21.90;99.90;;;;;;8392334;28;19920;-72
2022/05/06 17:44:54;;;;;;;;;;;22.10;99.90;;;;;;8395306;28;19927;-73
2022/05/06 17:48:57;;;;;;;;;;;22.40;99.90;;;;;;8391056;28;19924;-72
2022/05/06 17:52:59;;;;;;;;;;;22.50;99.90;;;;;;8386177;28;19991;-72
2022/05/06 17:57:00;;;;;;;;;;;22.40;99.90;;;;;;8418892;27;19928;-72
2022/05/06 18:01:17;;;;;;;;;;;22.30;99.90;;;;;;8387902;28;19920;-71
2022/05/06 18:05:19;;;;;;;;;;;22.10;99.90;;;;;;8394713;28;19924;-72
2022/05/06 18:09:21;;;;;;;;;;;21.80;99.90;;;;;;8389284;28;20292;-72
2022/05/06 18:13:22;;;;;;;;;;;21.70;99.90;;;;;;8390445;28;20691;-72
2022/05/06 18:17:24;;;;;;;;;;;21.60;99.90;;;;;;8387128;28;19936;-72
2022/05/06 18:21:26;;;;;;;;;;;21.50;99.90;;;;;;8390628;28;20004;-71
2022/05/06 18:25:28;;;;;;;;;;;21.40;99.90;;;;;;8388440;28;19927;-71
2022/05/06 18:29:30;;;;;;;;;;;21.20;99.90;;;;;;8389460;28;19928;-72
2022/05/06 18:33:32;;;;;;;;;;;21.10;99.90;;;;;;8393909;28;19930;-71
2022/05/06 18:37:33;;;;;;;;;;;21.00;99.90;;;;;;8396225;28;19924;-71
2022/05/06 18:41:35;;;;;;;;;;;20.90;99.90;;;;;;8393723;28;19928;-71
2022/05/06 18:45:37;;;;;;;;;;;20.80;99.90;;;;;;8400248;28;20010;-71
2022/05/06 18:49:38;;;;;;;;;;;20.70;99.90;;;;;;8398276;28;19924;-71
2022/05/06 18:53:41;;;;;;;;;;;20.60;99.90;;;;;;8402961;28;19952;-71
2022/05/06 18:57:42;;;;;;;;;;;20.50;99.90;;;;;;8429125;27;19920;-72
2022/05/06 19:01:44;;;;;;;;;;;20.40;99.90;;;;;;8410189;28;19943;-71
2022/05/06 19:05:46;;;;;;;;;;;20.30;99.90;;;;;;8410552;28;19920;-72
2022/05/06 19:09:48;;;;;;;;;;;20.10;99.90;;;;;;8433782;27;19920;-72
2022/05/06 19:13:50;;;;;;;;;;;19.90;99.90;;;;;;8404999;28;19935;-71
2022/05/06 19:17:58;;;;;;;;;;;19.70;99.90;;;;;;8407463;28;19925;-71
2022/05/06 19:26:20;;;;;;;;;;;19.40;99.90;;;;;;8394610;28;19927;-71
2022/05/06 19:30:22;;;;;;;;;;;19.20;99.90;;;;;;8406563;28;19920;-73
2022/05/06 19:34:23;;;;;;;;;;;19.10;99.90;;;;;;8405452;28;19928;-73
2022/05/06 19:38:25;;;;;;;;;;;19.00;99.90;;;;;;8427671;27;19977;-73
2022/05/06 19:42:27;;;;;;;;;;;18.80;99.90;;;;;;8397184;28;19963;-73
2022/05/06 19:46:29;;;;;;;;;;;18.70;99.90;;;;;;8411246;28;20130;-73
2022/05/06 19:50:30;;;;;;;;;;;18.50;99.90;;;;;;8403685;28;19950;-73
2022/05/06 19:54:32;;;;;;;;;;;18.40;99.90;;;;;;8393830;28;19924;-73
2022/05/06 19:58:34;;;;;;;;;;;18.30;99.90;;;;;;8397336;28;20279;-73
2022/05/06 20:02:35;;;;;;;;;;;18.20;99.90;;;;;;8395757;28;19920;-73
2022/05/06 20:06:37;;;;;;;;;;;18.10;99.90;;;;;;8391631;28;20408;-73
2022/05/06 20:10:38;;;;;;;;;;;17.90;99.90;;;;;;8390600;28;19924;-73
2022/05/06 20:14:40;;;;;;;;;;;17.80;99.90;;;;;;8396129;28;20052;-73
2022/05/06 20:18:44;;;;;;;;;;;17.70;99.90;;;;;;8406657;28;19924;-73
2022/05/06 20:22:46;;;;;;;;;;;17.60;99.90;;;;;;8398956;28;19935;-73
2022/05/06 20:26:48;;;;;;;;;;;17.50;99.90;;;;;;8401221;28;20279;-73
2022/05/06 20:30:50;;;;;;;;;;;17.40;99.90;;;;;;8392968;28;20198;-74
2022/05/06 20:34:52;;;;;;;;;;;17.30;99.90;;;;;;8396999;28;19935;-73
2022/05/06 20:38:54;;;;;;;;;;;17.20;99.90;;;;;;8390146;28;19924;-73
2022/05/06 20:42:56;;;;;;;;;;;17.10;99.80;;;;;;8392520;28;19920;-73
2022/05/06 20:46:57;;;;;;;;;;;17.00;99.60;;;;;;8396281;28;19924;-73
2022/05/06 20:50:59;;;;;;;;;;;17.00;99.60;;;;;;8394334;28;20411;-74
2022/05/06 20:55:01;;;;;;;;;;;16.90;99.60;;;;;;8391222;28;19967;-73
2022/05/06 20:59:21;;;;;;;;;;;16.80;99.70;;;;;;8395380;28;19924;-74
2022/05/06 21:03:22;;;;;;;;;;;16.60;99.60;;;;;;8412649;28;20282;-73
2022/05/06 21:07:25;;;;;;;;;;;16.50;99.60;;;;;;8415805;28;19927;-73
2022/05/06 21:15:47;;;;;;;;;;;16.40;99.70;;;;;;8417270;28;19927;-73
2022/05/06 21:19:49;;;;;;;;;;;16.30;99.50;;;;;;8448114;27;19921;-73
2022/05/06 21:23:51;;;;;;;;;;;16.30;99.50;;;;;;8416258;28;19920;-73
2022/05/06 21:27:59;;;;;;;;;;;16.20;99.40;;;;;;8404915;28;19924;-74
2022/05/06 21:32:08;;;;;;;;;;;16.10;99.30;;;;;;8414124;28;19939;-73
2022/05/06 21:36:10;;;;;;;;;;;16.10;99.30;;;;;;8421132;28;19919;-73
2022/05/06 21:40:13;;;;;;;;;;;16.00;99.20;;;;;;8409980;28;19932;-73
2022/05/06 21:44:15;;;;;;;;;;;15.90;99.20;;;;;;8413099;28;19924;-73
2022/05/06 21:48:16;;;;;;;;;;;15.90;99.20;;;;;;8433861;28;19930;-73
2022/05/06 21:52:19;;;;;;;;;;;15.80;99.20;;;;;;8418717;28;20370;-73
2022/05/06 21:56:21;;;;;;;;;;;15.70;99.20;;;;;;8423635;28;19924;-73
2022/05/06 22:00:35;;;;;;;;;;;15.70;99.10;;;;;;8403678;28;19961;-74
2022/05/06 22:04:37;;;;;;;;;;;15.60;99.10;;;;;;8419294;28;19925;-74
2022/05/06 22:08:40;;;;;;;;;;;15.60;99.20;;;;;;8412344;28;19929;-73
2022/05/06 22:12:42;;;;;;;;;;;15.50;99.30;;;;;;8416034;28;19920;-74
2022/05/06 22:16:43;;;;;;;;;;;15.50;99.30;;;;;;8418497;28;19920;-73
2022/05/06 22:20:45;;;;;;;;;;;15.40;99.30;;;;;;8419553;28;19927;-73
2022/05/06 22:24:47;;;;;;;;;;;15.40;99.40;;;;;;8419952;28;19951;-74
2022/05/06 22:28:49;;;;;;;;;;;15.30;99.30;;;;;;8423131;28;19920;-74
2022/05/06 22:37:11;;;;;;;;;;;15.30;99.40;;;;;;8419507;28;19924;-74
2022/05/06 22:49:53;;;;;;;;;;;15.20;99.40;;;;;;8418931;28;19992;-74
2022/05/06 22:53:55;;;;;;;;;;;15.10;99.40;;;;;;8415652;28;19963;-73
2022/05/06 22:57:57;;;;;;;;;;;15.10;99.40;;;;;;8409787;28;19928;-74
2022/05/06 23:01:59;;;;;;;;;;;15.00;99.50;;;;;;8413660;28;19920;-73
2022/05/06 23:06:03;;;;;;;;;;;15.00;99.50;;;;;;8406276;28;19966;-74
2022/05/06 23:10:05;;;;;;;;;;;15.00;99.50;;;;;;8413835;28;19920;-74
2022/05/06 23:14:06;;;;;;;;;;;14.90;99.40;;;;;;8409787;28;19924;-74
2022/05/06 23:18:08;;;;;;;;;;;14.80;99.40;;;;;;8421518;28;20339;-74
2022/05/06 23:22:10;;;;;;;;;;;14.70;99.60;;;;;;8432516;28;19927;-73
2022/05/06 23:26:11;;;;;;;;;;;14.70;99.60;;;;;;8415997;28;19924;-74
2022/05/06 23:30:13;;;;;;;;;;;14.60;99.50;;;;;;8421840;28;19920;-74
2022/05/06 23:34:15;;;;;;;;;;;14.60;99.70;;;;;;8415519;28;19935;-74
2022/05/06 23:38:17;;;;;;;;;;;14.60;99.50;;;;;;8425915;28;19927;-73
2022/05/06 23:42:19;;;;;;;;;;;14.50;99.50;;;;;;8421119;28;19920;-74
2022/05/06 23:46:20;;;;;;;;;;;14.50;99.60;;;;;;8415888;28;19920;-74
2022/05/06 23:50:22;;;;;;;;;;;14.50;99.60;;;;;;8413761;28;19919;-73
2022/05/06 23:54:24;;;;;;;;;;;14.50;99.60;;;;;;8413647;28;20363;-73
2022/05/06 23:58:25;;;;;;;;;;;14.40;99.50;;;;;;8426825;28;20397;-73
